<?xml version="1.0" encoding="UTF-8" standalone="no" ?>
<gpx xmlns="http://www.topografix.com/GPX/1/1" xmlns:xsi="http://www.w3.org/2001/XMLSchema-instance" xsi:schemaLocation="http://www.topografix.com/GPX/1/1 http://www.topografix.com/GPX/1/1/gpx.xsd" version="1.1" creator="VisuGPX - https://www.visugpx.com">
  <metadata>
    <name>PLAINE3</name>
  </metadata>
  <trk>
    <name><![CDATA[Vallée de l’Hérault – Site VTT FFC]]></name>
    <extensions>
      <line xmlns="http://www.topografix.com/GPX/gpx_style/0/2">
        <color>00FFFF</color>
        <width>4</width>
      </line>
    </extensions>
    <trkseg>
      <trkpt lat="43.5959" lon="3.51608">
        <ele>71.7</ele>
      </trkpt>
      <trkpt lat="43.5959" lon="3.51608">
        <ele>71.7</ele>
      </trkpt>
    </trkseg>
  </trk>
  <trk>
    <name><![CDATA[13503840-plaine2]]></name>
    <extensions>
      <line xmlns="http://www.topografix.com/GPX/gpx_style/0/2">
        <color>008800</color>
        <width>4</width>
      </line>
    </extensions>
    <trkseg>
      <trkpt lat="43.60491" lon="3.53626">
        <ele>85</ele>
        <time>2021-08-05T12:18:16Z</time>
      </trkpt>
      <trkpt lat="43.60491" lon="3.53626">
        <ele>85</ele>
        <time>2021-08-05T12:18:16Z</time>
      </trkpt>
      <trkpt lat="43.60486" lon="3.53546">
        <ele>83</ele>
        <time>2021-08-05T12:18:30Z</time>
      </trkpt>
      <trkpt lat="43.6046" lon="3.53496">
        <ele>85</ele>
        <time>2021-08-05T12:18:40Z</time>
      </trkpt>
      <trkpt lat="43.60425" lon="3.53474">
        <ele>88</ele>
        <time>2021-08-05T12:18:49Z</time>
      </trkpt>
      <trkpt lat="43.60357" lon="3.53392">
        <ele>96</ele>
        <time>2021-08-05T12:19:10Z</time>
      </trkpt>
      <trkpt lat="43.6027" lon="3.53409">
        <ele>104</ele>
        <time>2021-08-05T12:19:31Z</time>
      </trkpt>
      <trkpt lat="43.60201" lon="3.53529">
        <ele>104</ele>
        <time>2021-08-05T12:19:56Z</time>
      </trkpt>
      <trkpt lat="43.60133" lon="3.53624">
        <ele>102</ele>
        <time>2021-08-05T12:20:19Z</time>
      </trkpt>
      <trkpt lat="43.60071" lon="3.53723">
        <ele>100</ele>
        <time>2021-08-05T12:20:41Z</time>
      </trkpt>
      <trkpt lat="43.59822" lon="3.53594">
        <ele>113</ele>
        <time>2021-08-05T12:21:43Z</time>
      </trkpt>
      <trkpt lat="43.599" lon="3.53311">
        <ele>140</ele>
        <time>2021-08-05T12:22:35Z</time>
      </trkpt>
      <trkpt lat="43.59897" lon="3.53156">
        <ele>144</ele>
        <time>2021-08-05T12:23:01Z</time>
      </trkpt>
      <trkpt lat="43.59866" lon="3.53023">
        <ele>139</ele>
        <time>2021-08-05T12:23:24Z</time>
      </trkpt>
      <trkpt lat="43.59839" lon="3.52946">
        <ele>138</ele>
        <time>2021-08-05T12:23:39Z</time>
      </trkpt>
      <trkpt lat="43.59755" lon="3.52894">
        <ele>134</ele>
        <time>2021-08-05T12:24:00Z</time>
      </trkpt>
      <trkpt lat="43.59615" lon="3.52911">
        <ele>128</ele>
        <time>2021-08-05T12:24:33Z</time>
      </trkpt>
      <trkpt lat="43.59575" lon="3.52851">
        <ele>128</ele>
        <time>2021-08-05T12:24:47Z</time>
      </trkpt>
      <trkpt lat="43.595" lon="3.52817">
        <ele>121</ele>
        <time>2021-08-05T12:25:05Z</time>
      </trkpt>
      <trkpt lat="43.59385" lon="3.52851">
        <ele>119</ele>
        <time>2021-08-05T12:25:33Z</time>
      </trkpt>
      <trkpt lat="43.59304" lon="3.52783">
        <ele>117</ele>
        <time>2021-08-05T12:25:55Z</time>
      </trkpt>
      <trkpt lat="43.59216" lon="3.52588">
        <ele>108</ele>
        <time>2021-08-05T12:26:34Z</time>
      </trkpt>
      <trkpt lat="43.5921" lon="3.52524">
        <ele>109</ele>
        <time>2021-08-05T12:26:45Z</time>
      </trkpt>
      <trkpt lat="43.59322" lon="3.52442">
        <ele>113</ele>
        <time>2021-08-05T12:27:14Z</time>
      </trkpt>
      <trkpt lat="43.59446" lon="3.52451">
        <ele>120</ele>
        <time>2021-08-05T12:27:43Z</time>
      </trkpt>
      <trkpt lat="43.59564" lon="3.52623">
        <ele>131</ele>
        <time>2021-08-05T12:28:23Z</time>
      </trkpt>
      <trkpt lat="43.59611" lon="3.52717">
        <ele>131</ele>
        <time>2021-08-05T12:28:43Z</time>
      </trkpt>
      <trkpt lat="43.59751" lon="3.52829">
        <ele>139</ele>
        <time>2021-08-05T12:29:21Z</time>
      </trkpt>
      <trkpt lat="43.59801" lon="3.52851">
        <ele>137</ele>
        <time>2021-08-05T12:29:33Z</time>
      </trkpt>
      <trkpt lat="43.5984" lon="3.52821">
        <ele>133</ele>
        <time>2021-08-05T12:29:43Z</time>
      </trkpt>
      <trkpt lat="43.59878" lon="3.52822">
        <ele>129</ele>
        <time>2021-08-05T12:29:52Z</time>
      </trkpt>
      <trkpt lat="43.59832" lon="3.52784">
        <ele>130</ele>
        <time>2021-08-05T12:30:05Z</time>
      </trkpt>
      <trkpt lat="43.59834" lon="3.52718">
        <ele>121</ele>
        <time>2021-08-05T12:30:16Z</time>
      </trkpt>
      <trkpt lat="43.59936" lon="3.52584">
        <ele>109</ele>
        <time>2021-08-05T12:30:49Z</time>
      </trkpt>
      <trkpt lat="43.60063" lon="3.52742">
        <ele>110</ele>
        <time>2021-08-05T12:31:29Z</time>
      </trkpt>
      <trkpt lat="43.60243" lon="3.52663">
        <ele>107</ele>
        <time>2021-08-05T12:32:13Z</time>
      </trkpt>
      <trkpt lat="43.60357" lon="3.52548">
        <ele>101</ele>
        <time>2021-08-05T12:32:46Z</time>
      </trkpt>
      <trkpt lat="43.60454" lon="3.5256">
        <ele>103</ele>
        <time>2021-08-05T12:33:08Z</time>
      </trkpt>
      <trkpt lat="43.60652" lon="3.52463">
        <ele>108</ele>
        <time>2021-08-05T12:33:57Z</time>
      </trkpt>
      <trkpt lat="43.60823" lon="3.52505">
        <ele>110</ele>
        <time>2021-08-05T12:34:38Z</time>
      </trkpt>
      <trkpt lat="43.61118" lon="3.52196">
        <ele>93</ele>
        <time>2021-08-05T12:36:04Z</time>
      </trkpt>
      <trkpt lat="43.61395" lon="3.51856">
        <ele>73</ele>
        <time>2021-08-05T12:37:31Z</time>
      </trkpt>
      <trkpt lat="43.61474" lon="3.51279">
        <ele>59</ele>
        <time>2021-08-05T12:39:10Z</time>
      </trkpt>
      <trkpt lat="43.61777" lon="3.51285">
        <ele>65</ele>
        <time>2021-08-05T12:40:21Z</time>
      </trkpt>
      <trkpt lat="43.61796" lon="3.51409">
        <ele>67</ele>
        <time>2021-08-05T12:40:43Z</time>
      </trkpt>
      <trkpt lat="43.61765" lon="3.51494">
        <ele>69</ele>
        <time>2021-08-05T12:40:59Z</time>
      </trkpt>
      <trkpt lat="43.61791" lon="3.51603">
        <ele>72</ele>
        <time>2021-08-05T12:41:18Z</time>
      </trkpt>
      <trkpt lat="43.61871" lon="3.51724">
        <ele>75</ele>
        <time>2021-08-05T12:41:46Z</time>
      </trkpt>
      <trkpt lat="43.61822" lon="3.51882">
        <ele>82</ele>
        <time>2021-08-05T12:42:15Z</time>
      </trkpt>
      <trkpt lat="43.61862" lon="3.52125">
        <ele>94</ele>
        <time>2021-08-05T12:42:57Z</time>
      </trkpt>
      <trkpt lat="43.61843" lon="3.52718">
        <ele>109</ele>
        <time>2021-08-05T12:44:37Z</time>
      </trkpt>
      <trkpt lat="43.61992" lon="3.52706">
        <ele>92</ele>
        <time>2021-08-05T12:45:12Z</time>
      </trkpt>
      <trkpt lat="43.61931" lon="3.52924">
        <ele>81</ele>
        <time>2021-08-05T12:45:52Z</time>
      </trkpt>
      <trkpt lat="43.61922" lon="3.5328">
        <ele>67</ele>
        <time>2021-08-05T12:46:52Z</time>
      </trkpt>
      <trkpt lat="43.61843" lon="3.5345">
        <ele>68</ele>
        <time>2021-08-05T12:47:26Z</time>
      </trkpt>
      <trkpt lat="43.61931" lon="3.5359">
        <ele>77</ele>
        <time>2021-08-05T12:47:57Z</time>
      </trkpt>
      <trkpt lat="43.62071" lon="3.53553">
        <ele>77</ele>
        <time>2021-08-05T12:48:31Z</time>
      </trkpt>
      <trkpt lat="43.62238" lon="3.53541">
        <ele>70</ele>
        <time>2021-08-05T12:49:10Z</time>
      </trkpt>
      <trkpt lat="43.62493" lon="3.53547">
        <ele>80</ele>
        <time>2021-08-05T12:50:09Z</time>
      </trkpt>
      <trkpt lat="43.62812" lon="3.53709">
        <ele>73</ele>
        <time>2021-08-05T12:51:29Z</time>
      </trkpt>
      <trkpt lat="43.62865" lon="3.54243">
        <ele>80</ele>
        <time>2021-08-05T12:53:00Z</time>
      </trkpt>
      <trkpt lat="43.63002" lon="3.54131">
        <ele>79</ele>
        <time>2021-08-05T12:53:37Z</time>
      </trkpt>
      <trkpt lat="43.63205" lon="3.54202">
        <ele>65</ele>
        <time>2021-08-05T12:54:26Z</time>
      </trkpt>
      <trkpt lat="43.63456" lon="3.54427">
        <ele>64</ele>
        <time>2021-08-05T12:55:36Z</time>
      </trkpt>
      <trkpt lat="43.63448" lon="3.54631">
        <ele>70</ele>
        <time>2021-08-05T12:56:10Z</time>
      </trkpt>
      <trkpt lat="43.63796" lon="3.54498">
        <ele>75</ele>
        <time>2021-08-05T12:57:35Z</time>
      </trkpt>
      <trkpt lat="43.64217" lon="3.54495">
        <ele>69</ele>
        <time>2021-08-05T12:59:13Z</time>
      </trkpt>
      <trkpt lat="43.64496" lon="3.54556">
        <ele>50</ele>
        <time>2021-08-05T13:00:19Z</time>
      </trkpt>
      <trkpt lat="43.64694" lon="3.54675">
        <ele>56</ele>
        <time>2021-08-05T13:01:09Z</time>
      </trkpt>
      <trkpt lat="43.64849" lon="3.54721">
        <ele>58</ele>
        <time>2021-08-05T13:01:46Z</time>
      </trkpt>
      <trkpt lat="43.64938" lon="3.54818">
        <ele>62</ele>
        <time>2021-08-05T13:02:13Z</time>
      </trkpt>
      <trkpt lat="43.65115" lon="3.54828">
        <ele>63</ele>
        <time>2021-08-05T13:02:54Z</time>
      </trkpt>
      <trkpt lat="43.65332" lon="3.55147">
        <ele>66</ele>
        <time>2021-08-05T13:04:08Z</time>
      </trkpt>
      <trkpt lat="43.65496" lon="3.55418">
        <ele>65</ele>
        <time>2021-08-05T13:05:08Z</time>
      </trkpt>
      <trkpt lat="43.65929" lon="3.55919">
        <ele>57</ele>
        <time>2021-08-05T13:07:20Z</time>
      </trkpt>
      <trkpt lat="43.65986" lon="3.55887">
        <ele>58</ele>
        <time>2021-08-05T13:07:34Z</time>
      </trkpt>
      <trkpt lat="43.66391" lon="3.56535">
        <ele>59</ele>
        <time>2021-08-05T13:09:59Z</time>
      </trkpt>
      <trkpt lat="43.66529" lon="3.5662">
        <ele>62</ele>
        <time>2021-08-05T13:10:34Z</time>
      </trkpt>
      <trkpt lat="43.67036" lon="3.56908">
        <ele>61</ele>
        <time>2021-08-05T13:12:42Z</time>
      </trkpt>
      <trkpt lat="43.67228" lon="3.5706">
        <ele>60</ele>
        <time>2021-08-05T13:13:34Z</time>
      </trkpt>
      <trkpt lat="43.67367" lon="3.56862">
        <ele>61</ele>
        <time>2021-08-05T13:14:20Z</time>
      </trkpt>
      <trkpt lat="43.6733" lon="3.56801">
        <ele>60</ele>
        <time>2021-08-05T13:14:34Z</time>
      </trkpt>
      <trkpt lat="43.67433" lon="3.56509">
        <ele>50</ele>
        <time>2021-08-05T13:15:29Z</time>
      </trkpt>
      <trkpt lat="43.67427" lon="3.56525">
        <ele>51</ele>
        <time>2021-08-05T12:09:22Z</time>
      </trkpt>
      <trkpt lat="43.67427" lon="3.56525">
        <ele>51</ele>
        <time>2021-08-05T12:09:22Z</time>
      </trkpt>
      <trkpt lat="43.67405" lon="3.56613">
        <ele>53</ele>
        <time>2021-08-05T12:09:38Z</time>
      </trkpt>
      <trkpt lat="43.67399" lon="3.56676">
        <ele>55</ele>
        <time>2021-08-05T12:09:48Z</time>
      </trkpt>
      <trkpt lat="43.67392" lon="3.56706">
        <ele>56</ele>
        <time>2021-08-05T12:09:54Z</time>
      </trkpt>
      <trkpt lat="43.67354" lon="3.56758">
        <ele>59</ele>
        <time>2021-08-05T12:10:06Z</time>
      </trkpt>
      <trkpt lat="43.67325" lon="3.56807">
        <ele>60</ele>
        <time>2021-08-05T12:10:17Z</time>
      </trkpt>
      <trkpt lat="43.67354" lon="3.56843">
        <ele>61</ele>
        <time>2021-08-05T12:10:26Z</time>
      </trkpt>
      <trkpt lat="43.67364" lon="3.56863">
        <ele>61</ele>
        <time>2021-08-05T12:10:30Z</time>
      </trkpt>
      <trkpt lat="43.6735" lon="3.56883">
        <ele>61</ele>
        <time>2021-08-05T12:10:35Z</time>
      </trkpt>
      <trkpt lat="43.67316" lon="3.56943">
        <ele>60</ele>
        <time>2021-08-05T12:10:48Z</time>
      </trkpt>
      <trkpt lat="43.67274" lon="3.57013">
        <ele>60</ele>
        <time>2021-08-05T12:11:03Z</time>
      </trkpt>
      <trkpt lat="43.67241" lon="3.57061">
        <ele>60</ele>
        <time>2021-08-05T12:11:14Z</time>
      </trkpt>
      <trkpt lat="43.67231" lon="3.57066">
        <ele>60</ele>
        <time>2021-08-05T12:11:17Z</time>
      </trkpt>
      <trkpt lat="43.67217" lon="3.57066">
        <ele>59</ele>
        <time>2021-08-05T12:11:20Z</time>
      </trkpt>
      <trkpt lat="43.67142" lon="3.57006">
        <ele>60</ele>
        <time>2021-08-05T12:11:40Z</time>
      </trkpt>
      <trkpt lat="43.67133" lon="3.56995">
        <ele>60</ele>
        <time>2021-08-05T12:11:43Z</time>
      </trkpt>
      <trkpt lat="43.67124" lon="3.56966">
        <ele>60</ele>
        <time>2021-08-05T12:11:48Z</time>
      </trkpt>
      <trkpt lat="43.67118" lon="3.56957">
        <ele>60</ele>
        <time>2021-08-05T12:11:50Z</time>
      </trkpt>
      <trkpt lat="43.67103" lon="3.56948">
        <ele>60</ele>
        <time>2021-08-05T12:11:54Z</time>
      </trkpt>
      <trkpt lat="43.67085" lon="3.56939">
        <ele>60</ele>
        <time>2021-08-05T12:11:59Z</time>
      </trkpt>
      <trkpt lat="43.6706" lon="3.56933">
        <ele>61</ele>
        <time>2021-08-05T12:12:05Z</time>
      </trkpt>
      <trkpt lat="43.6693" lon="3.56831">
        <ele>60</ele>
        <time>2021-08-05T12:12:40Z</time>
      </trkpt>
      <trkpt lat="43.66845" lon="3.56776">
        <ele>59</ele>
        <time>2021-08-05T12:13:02Z</time>
      </trkpt>
      <trkpt lat="43.66736" lon="3.56723">
        <ele>60</ele>
        <time>2021-08-05T12:13:29Z</time>
      </trkpt>
      <trkpt lat="43.66694" lon="3.56696">
        <ele>61</ele>
        <time>2021-08-05T12:13:39Z</time>
      </trkpt>
      <trkpt lat="43.66652" lon="3.56675">
        <ele>61</ele>
        <time>2021-08-05T12:13:50Z</time>
      </trkpt>
      <trkpt lat="43.66556" lon="3.56633">
        <ele>62</ele>
        <time>2021-08-05T12:14:13Z</time>
      </trkpt>
      <trkpt lat="43.66423" lon="3.56564">
        <ele>60</ele>
        <time>2021-08-05T12:14:46Z</time>
      </trkpt>
      <trkpt lat="43.66386" lon="3.56534">
        <ele>59</ele>
        <time>2021-08-05T12:14:56Z</time>
      </trkpt>
      <trkpt lat="43.66333" lon="3.56458">
        <ele>59</ele>
        <time>2021-08-05T12:15:14Z</time>
      </trkpt>
      <trkpt lat="43.66214" lon="3.5626">
        <ele>59</ele>
        <time>2021-08-05T12:15:58Z</time>
      </trkpt>
      <trkpt lat="43.6618" lon="3.56209">
        <ele>59</ele>
        <time>2021-08-05T12:16:10Z</time>
      </trkpt>
      <trkpt lat="43.66075" lon="3.56043">
        <ele>62</ele>
        <time>2021-08-05T12:16:47Z</time>
      </trkpt>
      <trkpt lat="43.6598" lon="3.55887">
        <ele>58</ele>
        <time>2021-08-05T12:17:21Z</time>
      </trkpt>
      <trkpt lat="43.65953" lon="3.55903">
        <ele>58</ele>
        <time>2021-08-05T12:17:28Z</time>
      </trkpt>
      <trkpt lat="43.65921" lon="3.55925">
        <ele>57</ele>
        <time>2021-08-05T12:17:36Z</time>
      </trkpt>
      <trkpt lat="43.65854" lon="3.55847">
        <ele>62</ele>
        <time>2021-08-05T12:17:57Z</time>
      </trkpt>
      <trkpt lat="43.65816" lon="3.5581">
        <ele>64</ele>
        <time>2021-08-05T12:18:08Z</time>
      </trkpt>
      <trkpt lat="43.65735" lon="3.55747">
        <ele>65</ele>
        <time>2021-08-05T12:18:29Z</time>
      </trkpt>
      <trkpt lat="43.65648" lon="3.5564">
        <ele>68</ele>
        <time>2021-08-05T12:18:57Z</time>
      </trkpt>
      <trkpt lat="43.6559" lon="3.55575">
        <ele>68</ele>
        <time>2021-08-05T12:19:14Z</time>
      </trkpt>
      <trkpt lat="43.65583" lon="3.55563">
        <ele>68</ele>
        <time>2021-08-05T12:19:17Z</time>
      </trkpt>
      <trkpt lat="43.6558" lon="3.55567">
        <ele>68</ele>
        <time>2021-08-05T12:19:18Z</time>
      </trkpt>
      <trkpt lat="43.65571" lon="3.55567">
        <ele>69</ele>
        <time>2021-08-05T12:19:20Z</time>
      </trkpt>
      <trkpt lat="43.65567" lon="3.55563">
        <ele>69</ele>
        <time>2021-08-05T12:19:21Z</time>
      </trkpt>
      <trkpt lat="43.65563" lon="3.55567">
        <ele>69</ele>
        <time>2021-08-05T12:19:22Z</time>
      </trkpt>
      <trkpt lat="43.65555" lon="3.5557">
        <ele>69</ele>
        <time>2021-08-05T12:19:24Z</time>
      </trkpt>
      <trkpt lat="43.65519" lon="3.55572">
        <ele>70</ele>
        <time>2021-08-05T12:19:32Z</time>
      </trkpt>
      <trkpt lat="43.65503" lon="3.55572">
        <ele>70</ele>
        <time>2021-08-05T12:19:36Z</time>
      </trkpt>
      <trkpt lat="43.65402" lon="3.55574">
        <ele>73</ele>
        <time>2021-08-05T12:20:00Z</time>
      </trkpt>
      <trkpt lat="43.65398" lon="3.55571">
        <ele>73</ele>
        <time>2021-08-05T12:20:01Z</time>
      </trkpt>
      <trkpt lat="43.65382" lon="3.55551">
        <ele>74</ele>
        <time>2021-08-05T12:20:06Z</time>
      </trkpt>
      <trkpt lat="43.65349" lon="3.555">
        <ele>74</ele>
        <time>2021-08-05T12:20:17Z</time>
      </trkpt>
      <trkpt lat="43.6534" lon="3.5549">
        <ele>74</ele>
        <time>2021-08-05T12:20:20Z</time>
      </trkpt>
      <trkpt lat="43.65326" lon="3.55477">
        <ele>74</ele>
        <time>2021-08-05T12:20:24Z</time>
      </trkpt>
      <trkpt lat="43.65318" lon="3.55472">
        <ele>75</ele>
        <time>2021-08-05T12:20:26Z</time>
      </trkpt>
      <trkpt lat="43.65305" lon="3.55458">
        <ele>75</ele>
        <time>2021-08-05T12:20:30Z</time>
      </trkpt>
      <trkpt lat="43.65301" lon="3.55457">
        <ele>75</ele>
        <time>2021-08-05T12:20:31Z</time>
      </trkpt>
      <trkpt lat="43.65288" lon="3.55459">
        <ele>75</ele>
        <time>2021-08-05T12:20:34Z</time>
      </trkpt>
      <trkpt lat="43.65285" lon="3.55457">
        <ele>75</ele>
        <time>2021-08-05T12:20:35Z</time>
      </trkpt>
      <trkpt lat="43.65282" lon="3.55453">
        <ele>75</ele>
        <time>2021-08-05T12:20:36Z</time>
      </trkpt>
      <trkpt lat="43.65278" lon="3.55436">
        <ele>74</ele>
        <time>2021-08-05T12:20:39Z</time>
      </trkpt>
      <trkpt lat="43.65274" lon="3.55426">
        <ele>74</ele>
        <time>2021-08-05T12:20:41Z</time>
      </trkpt>
      <trkpt lat="43.65263" lon="3.55416">
        <ele>74</ele>
        <time>2021-08-05T12:20:44Z</time>
      </trkpt>
      <trkpt lat="43.6524" lon="3.55381">
        <ele>74</ele>
        <time>2021-08-05T12:20:52Z</time>
      </trkpt>
      <trkpt lat="43.65234" lon="3.55369">
        <ele>74</ele>
        <time>2021-08-05T12:20:54Z</time>
      </trkpt>
      <trkpt lat="43.6523" lon="3.55361">
        <ele>73</ele>
        <time>2021-08-05T12:20:56Z</time>
      </trkpt>
      <trkpt lat="43.65235" lon="3.55356">
        <ele>73</ele>
        <time>2021-08-05T12:20:57Z</time>
      </trkpt>
      <trkpt lat="43.65212" lon="3.5534">
        <ele>74</ele>
        <time>2021-08-05T12:21:03Z</time>
      </trkpt>
      <trkpt lat="43.65195" lon="3.55321">
        <ele>74</ele>
        <time>2021-08-05T12:21:08Z</time>
      </trkpt>
      <trkpt lat="43.65153" lon="3.55248">
        <ele>75</ele>
        <time>2021-08-05T12:21:24Z</time>
      </trkpt>
      <trkpt lat="43.65151" lon="3.55246">
        <ele>75</ele>
        <time>2021-08-05T12:21:25Z</time>
      </trkpt>
      <trkpt lat="43.65134" lon="3.55221">
        <ele>77</ele>
        <time>2021-08-05T12:21:30Z</time>
      </trkpt>
      <trkpt lat="43.65107" lon="3.55184">
        <ele>78</ele>
        <time>2021-08-05T12:21:39Z</time>
      </trkpt>
      <trkpt lat="43.65085" lon="3.55153">
        <ele>80</ele>
        <time>2021-08-05T12:21:47Z</time>
      </trkpt>
      <trkpt lat="43.65079" lon="3.55143">
        <ele>80</ele>
        <time>2021-08-05T12:21:49Z</time>
      </trkpt>
      <trkpt lat="43.65073" lon="3.55135">
        <ele>81</ele>
        <time>2021-08-05T12:21:51Z</time>
      </trkpt>
      <trkpt lat="43.6505" lon="3.55107">
        <ele>81</ele>
        <time>2021-08-05T12:21:58Z</time>
      </trkpt>
      <trkpt lat="43.65044" lon="3.55101">
        <ele>81</ele>
        <time>2021-08-05T12:22:00Z</time>
      </trkpt>
      <trkpt lat="43.65038" lon="3.55078">
        <ele>81</ele>
        <time>2021-08-05T12:22:04Z</time>
      </trkpt>
      <trkpt lat="43.65041" lon="3.55076">
        <ele>81</ele>
        <time>2021-08-05T12:22:05Z</time>
      </trkpt>
      <trkpt lat="43.65043" lon="3.55091">
        <ele>81</ele>
        <time>2021-08-05T12:22:07Z</time>
      </trkpt>
      <trkpt lat="43.65052" lon="3.551">
        <ele>81</ele>
        <time>2021-08-05T12:22:10Z</time>
      </trkpt>
      <trkpt lat="43.65064" lon="3.55108">
        <ele>82</ele>
        <time>2021-08-05T12:22:13Z</time>
      </trkpt>
      <trkpt lat="43.65072" lon="3.55109">
        <ele>82</ele>
        <time>2021-08-05T12:22:15Z</time>
      </trkpt>
      <trkpt lat="43.6507" lon="3.55092">
        <ele>83</ele>
        <time>2021-08-05T12:22:18Z</time>
      </trkpt>
      <trkpt lat="43.65076" lon="3.55082">
        <ele>83</ele>
        <time>2021-08-05T12:22:20Z</time>
      </trkpt>
      <trkpt lat="43.6507" lon="3.55092">
        <ele>83</ele>
        <time>2021-08-05T12:22:22Z</time>
      </trkpt>
      <trkpt lat="43.65072" lon="3.55109">
        <ele>82</ele>
        <time>2021-08-05T12:22:25Z</time>
      </trkpt>
      <trkpt lat="43.65064" lon="3.55108">
        <ele>82</ele>
        <time>2021-08-05T12:22:27Z</time>
      </trkpt>
      <trkpt lat="43.65052" lon="3.551">
        <ele>81</ele>
        <time>2021-08-05T12:22:30Z</time>
      </trkpt>
      <trkpt lat="43.65043" lon="3.55091">
        <ele>81</ele>
        <time>2021-08-05T12:22:33Z</time>
      </trkpt>
      <trkpt lat="43.65041" lon="3.55076">
        <ele>81</ele>
        <time>2021-08-05T12:22:35Z</time>
      </trkpt>
      <trkpt lat="43.65038" lon="3.55078">
        <ele>81</ele>
        <time>2021-08-05T12:22:36Z</time>
      </trkpt>
      <trkpt lat="43.65044" lon="3.55101">
        <ele>81</ele>
        <time>2021-08-05T12:22:40Z</time>
      </trkpt>
      <trkpt lat="43.65038" lon="3.55111">
        <ele>81</ele>
        <time>2021-08-05T12:22:42Z</time>
      </trkpt>
      <trkpt lat="43.65017" lon="3.55168">
        <ele>81</ele>
        <time>2021-08-05T12:22:53Z</time>
      </trkpt>
      <trkpt lat="43.65009" lon="3.55185">
        <ele>81</ele>
        <time>2021-08-05T12:22:57Z</time>
      </trkpt>
      <trkpt lat="43.65001" lon="3.55194">
        <ele>82</ele>
        <time>2021-08-05T12:22:59Z</time>
      </trkpt>
      <trkpt lat="43.64994" lon="3.55208">
        <ele>82</ele>
        <time>2021-08-05T12:23:02Z</time>
      </trkpt>
      <trkpt lat="43.64969" lon="3.55239">
        <ele>82</ele>
        <time>2021-08-05T12:23:10Z</time>
      </trkpt>
      <trkpt lat="43.64939" lon="3.55287">
        <ele>84</ele>
        <time>2021-08-05T12:23:20Z</time>
      </trkpt>
      <trkpt lat="43.64931" lon="3.55299">
        <ele>85</ele>
        <time>2021-08-05T12:23:23Z</time>
      </trkpt>
      <trkpt lat="43.6489" lon="3.55406">
        <ele>90</ele>
        <time>2021-08-05T12:23:44Z</time>
      </trkpt>
      <trkpt lat="43.64864" lon="3.5545">
        <ele>92</ele>
        <time>2021-08-05T12:23:53Z</time>
      </trkpt>
      <trkpt lat="43.64844" lon="3.55477">
        <ele>94</ele>
        <time>2021-08-05T12:24:00Z</time>
      </trkpt>
      <trkpt lat="43.64837" lon="3.55484">
        <ele>94</ele>
        <time>2021-08-05T12:24:02Z</time>
      </trkpt>
      <trkpt lat="43.64826" lon="3.55489">
        <ele>95</ele>
        <time>2021-08-05T12:24:04Z</time>
      </trkpt>
      <trkpt lat="43.64812" lon="3.55491">
        <ele>95</ele>
        <time>2021-08-05T12:24:08Z</time>
      </trkpt>
      <trkpt lat="43.64783" lon="3.55484">
        <ele>95</ele>
        <time>2021-08-05T12:24:15Z</time>
      </trkpt>
      <trkpt lat="43.64772" lon="3.55514">
        <ele>96</ele>
        <time>2021-08-05T12:24:20Z</time>
      </trkpt>
      <trkpt lat="43.64765" lon="3.55524">
        <ele>96</ele>
        <time>2021-08-05T12:24:23Z</time>
      </trkpt>
      <trkpt lat="43.64696" lon="3.55573">
        <ele>90</ele>
        <time>2021-08-05T12:24:41Z</time>
      </trkpt>
      <trkpt lat="43.64611" lon="3.55612">
        <ele>82</ele>
        <time>2021-08-05T12:25:02Z</time>
      </trkpt>
      <trkpt lat="43.6458" lon="3.55606">
        <ele>80</ele>
        <time>2021-08-05T12:25:09Z</time>
      </trkpt>
      <trkpt lat="43.64544" lon="3.55606">
        <ele>79</ele>
        <time>2021-08-05T12:25:17Z</time>
      </trkpt>
      <trkpt lat="43.64431" lon="3.55618">
        <ele>79</ele>
        <time>2021-08-05T12:25:44Z</time>
      </trkpt>
      <trkpt lat="43.64415" lon="3.55613">
        <ele>79</ele>
        <time>2021-08-05T12:25:48Z</time>
      </trkpt>
      <trkpt lat="43.64405" lon="3.55631">
        <ele>79</ele>
        <time>2021-08-05T12:25:52Z</time>
      </trkpt>
      <trkpt lat="43.64371" lon="3.55675">
        <ele>82</ele>
        <time>2021-08-05T12:26:02Z</time>
      </trkpt>
      <trkpt lat="43.64354" lon="3.55707">
        <ele>84</ele>
        <time>2021-08-05T12:26:09Z</time>
      </trkpt>
      <trkpt lat="43.6432" lon="3.5578">
        <ele>85</ele>
        <time>2021-08-05T12:26:24Z</time>
      </trkpt>
      <trkpt lat="43.64306" lon="3.55819">
        <ele>85</ele>
        <time>2021-08-05T12:26:31Z</time>
      </trkpt>
      <trkpt lat="43.64289" lon="3.55848">
        <ele>84</ele>
        <time>2021-08-05T12:26:37Z</time>
      </trkpt>
      <trkpt lat="43.64213" lon="3.56011">
        <ele>87</ele>
        <time>2021-08-05T12:27:10Z</time>
      </trkpt>
      <trkpt lat="43.64207" lon="3.56033">
        <ele>87</ele>
        <time>2021-08-05T12:27:14Z</time>
      </trkpt>
      <trkpt lat="43.64205" lon="3.56049">
        <ele>88</ele>
        <time>2021-08-05T12:27:17Z</time>
      </trkpt>
      <trkpt lat="43.64191" lon="3.56077">
        <ele>89</ele>
        <time>2021-08-05T12:27:23Z</time>
      </trkpt>
      <trkpt lat="43.64174" lon="3.56103">
        <ele>91</ele>
        <time>2021-08-05T12:27:29Z</time>
      </trkpt>
      <trkpt lat="43.64142" lon="3.5613">
        <ele>92</ele>
        <time>2021-08-05T12:27:37Z</time>
      </trkpt>
      <trkpt lat="43.6414" lon="3.56136">
        <ele>93</ele>
        <time>2021-08-05T12:27:38Z</time>
      </trkpt>
      <trkpt lat="43.64127" lon="3.56153">
        <ele>93</ele>
        <time>2021-08-05T12:27:43Z</time>
      </trkpt>
      <trkpt lat="43.64067" lon="3.5621">
        <ele>95</ele>
        <time>2021-08-05T12:28:00Z</time>
      </trkpt>
      <trkpt lat="43.64052" lon="3.56244">
        <ele>96</ele>
        <time>2021-08-05T12:28:06Z</time>
      </trkpt>
      <trkpt lat="43.64026" lon="3.56333">
        <ele>100</ele>
        <time>2021-08-05T12:28:23Z</time>
      </trkpt>
      <trkpt lat="43.64018" lon="3.56385">
        <ele>100</ele>
        <time>2021-08-05T12:28:32Z</time>
      </trkpt>
      <trkpt lat="43.64018" lon="3.56399">
        <ele>100</ele>
        <time>2021-08-05T12:28:34Z</time>
      </trkpt>
      <trkpt lat="43.64009" lon="3.56415">
        <ele>100</ele>
        <time>2021-08-05T12:28:37Z</time>
      </trkpt>
      <trkpt lat="43.63974" lon="3.5646">
        <ele>98</ele>
        <time>2021-08-05T12:28:49Z</time>
      </trkpt>
      <trkpt lat="43.63916" lon="3.56519">
        <ele>95</ele>
        <time>2021-08-05T12:29:05Z</time>
      </trkpt>
      <trkpt lat="43.63895" lon="3.56534">
        <ele>95</ele>
        <time>2021-08-05T12:29:11Z</time>
      </trkpt>
      <trkpt lat="43.63836" lon="3.56585">
        <ele>94</ele>
        <time>2021-08-05T12:29:27Z</time>
      </trkpt>
      <trkpt lat="43.63782" lon="3.56614">
        <ele>91</ele>
        <time>2021-08-05T12:29:41Z</time>
      </trkpt>
      <trkpt lat="43.63716" lon="3.56668">
        <ele>88</ele>
        <time>2021-08-05T12:29:59Z</time>
      </trkpt>
      <trkpt lat="43.63696" lon="3.56681">
        <ele>87</ele>
        <time>2021-08-05T12:30:04Z</time>
      </trkpt>
      <trkpt lat="43.6363" lon="3.5674">
        <ele>87</ele>
        <time>2021-08-05T12:30:22Z</time>
      </trkpt>
      <trkpt lat="43.63603" lon="3.56752">
        <ele>87</ele>
        <time>2021-08-05T12:30:29Z</time>
      </trkpt>
      <trkpt lat="43.63562" lon="3.56779">
        <ele>87</ele>
        <time>2021-08-05T12:30:39Z</time>
      </trkpt>
      <trkpt lat="43.6352" lon="3.56797">
        <ele>86</ele>
        <time>2021-08-05T12:30:50Z</time>
      </trkpt>
      <trkpt lat="43.63503" lon="3.56807">
        <ele>86</ele>
        <time>2021-08-05T12:30:54Z</time>
      </trkpt>
      <trkpt lat="43.63443" lon="3.56863">
        <ele>83</ele>
        <time>2021-08-05T12:31:11Z</time>
      </trkpt>
      <trkpt lat="43.63429" lon="3.56873">
        <ele>83</ele>
        <time>2021-08-05T12:31:14Z</time>
      </trkpt>
      <trkpt lat="43.63391" lon="3.56894">
        <ele>81</ele>
        <time>2021-08-05T12:31:24Z</time>
      </trkpt>
      <trkpt lat="43.63387" lon="3.569">
        <ele>81</ele>
        <time>2021-08-05T12:31:25Z</time>
      </trkpt>
      <trkpt lat="43.63385" lon="3.56906">
        <ele>81</ele>
        <time>2021-08-05T12:31:27Z</time>
      </trkpt>
      <trkpt lat="43.63386" lon="3.56916">
        <ele>81</ele>
        <time>2021-08-05T12:31:28Z</time>
      </trkpt>
      <trkpt lat="43.63397" lon="3.56945">
        <ele>82</ele>
        <time>2021-08-05T12:31:34Z</time>
      </trkpt>
      <trkpt lat="43.63398" lon="3.56956">
        <ele>82</ele>
        <time>2021-08-05T12:31:36Z</time>
      </trkpt>
      <trkpt lat="43.63394" lon="3.56967">
        <ele>82</ele>
        <time>2021-08-05T12:31:38Z</time>
      </trkpt>
      <trkpt lat="43.63364" lon="3.57018">
        <ele>82</ele>
        <time>2021-08-05T12:31:49Z</time>
      </trkpt>
      <trkpt lat="43.63347" lon="3.57005">
        <ele>80</ele>
        <time>2021-08-05T12:31:53Z</time>
      </trkpt>
      <trkpt lat="43.63318" lon="3.5699">
        <ele>79</ele>
        <time>2021-08-05T12:32:01Z</time>
      </trkpt>
      <trkpt lat="43.63293" lon="3.56984">
        <ele>80</ele>
        <time>2021-08-05T12:32:07Z</time>
      </trkpt>
      <trkpt lat="43.6328" lon="3.56988">
        <ele>80</ele>
        <time>2021-08-05T12:32:10Z</time>
      </trkpt>
      <trkpt lat="43.63258" lon="3.57019">
        <ele>81</ele>
        <time>2021-08-05T12:32:17Z</time>
      </trkpt>
      <trkpt lat="43.63242" lon="3.57034">
        <ele>81</ele>
        <time>2021-08-05T12:32:22Z</time>
      </trkpt>
      <trkpt lat="43.63235" lon="3.57036">
        <ele>81</ele>
        <time>2021-08-05T12:32:23Z</time>
      </trkpt>
      <trkpt lat="43.63224" lon="3.57033">
        <ele>82</ele>
        <time>2021-08-05T12:32:26Z</time>
      </trkpt>
      <trkpt lat="43.63209" lon="3.57026">
        <ele>82</ele>
        <time>2021-08-05T12:32:29Z</time>
      </trkpt>
      <trkpt lat="43.63201" lon="3.57019">
        <ele>83</ele>
        <time>2021-08-05T12:32:32Z</time>
      </trkpt>
      <trkpt lat="43.6317" lon="3.57046">
        <ele>83</ele>
        <time>2021-08-05T12:32:40Z</time>
      </trkpt>
      <trkpt lat="43.63151" lon="3.57065">
        <ele>84</ele>
        <time>2021-08-05T12:32:46Z</time>
      </trkpt>
      <trkpt lat="43.63128" lon="3.57084">
        <ele>85</ele>
        <time>2021-08-05T12:32:52Z</time>
      </trkpt>
      <trkpt lat="43.6311" lon="3.57095">
        <ele>86</ele>
        <time>2021-08-05T12:32:57Z</time>
      </trkpt>
      <trkpt lat="43.63056" lon="3.57115">
        <ele>90</ele>
        <time>2021-08-05T12:33:10Z</time>
      </trkpt>
      <trkpt lat="43.63031" lon="3.57127">
        <ele>91</ele>
        <time>2021-08-05T12:33:16Z</time>
      </trkpt>
      <trkpt lat="43.62985" lon="3.57157">
        <ele>92</ele>
        <time>2021-08-05T12:33:28Z</time>
      </trkpt>
      <trkpt lat="43.62965" lon="3.57162">
        <ele>92</ele>
        <time>2021-08-05T12:33:32Z</time>
      </trkpt>
      <trkpt lat="43.6294" lon="3.57165">
        <ele>92</ele>
        <time>2021-08-05T12:33:38Z</time>
      </trkpt>
      <trkpt lat="43.62904" lon="3.57161">
        <ele>93</ele>
        <time>2021-08-05T12:33:47Z</time>
      </trkpt>
      <trkpt lat="43.62894" lon="3.57157">
        <ele>93</ele>
        <time>2021-08-05T12:33:49Z</time>
      </trkpt>
      <trkpt lat="43.6289" lon="3.57147">
        <ele>93</ele>
        <time>2021-08-05T12:33:51Z</time>
      </trkpt>
      <trkpt lat="43.62874" lon="3.57141">
        <ele>94</ele>
        <time>2021-08-05T12:33:55Z</time>
      </trkpt>
      <trkpt lat="43.62874" lon="3.57132">
        <ele>93</ele>
        <time>2021-08-05T12:33:57Z</time>
      </trkpt>
      <trkpt lat="43.62868" lon="3.57116">
        <ele>93</ele>
        <time>2021-08-05T12:34:00Z</time>
      </trkpt>
      <trkpt lat="43.62853" lon="3.57054">
        <ele>91</ele>
        <time>2021-08-05T12:34:11Z</time>
      </trkpt>
      <trkpt lat="43.62843" lon="3.57028">
        <ele>89</ele>
        <time>2021-08-05T12:34:16Z</time>
      </trkpt>
      <trkpt lat="43.62808" lon="3.56982">
        <ele>88</ele>
        <time>2021-08-05T12:34:27Z</time>
      </trkpt>
      <trkpt lat="43.62804" lon="3.56968">
        <ele>88</ele>
        <time>2021-08-05T12:34:29Z</time>
      </trkpt>
      <trkpt lat="43.6278" lon="3.56956">
        <ele>88</ele>
        <time>2021-08-05T12:34:35Z</time>
      </trkpt>
      <trkpt lat="43.6277" lon="3.56938">
        <ele>88</ele>
        <time>2021-08-05T12:34:39Z</time>
      </trkpt>
      <trkpt lat="43.62762" lon="3.56908">
        <ele>87</ele>
        <time>2021-08-05T12:34:45Z</time>
      </trkpt>
      <trkpt lat="43.62758" lon="3.56884">
        <ele>87</ele>
        <time>2021-08-05T12:34:49Z</time>
      </trkpt>
      <trkpt lat="43.62578" lon="3.56948">
        <ele>98</ele>
        <time>2021-08-05T12:35:32Z</time>
      </trkpt>
      <trkpt lat="43.62565" lon="3.56949">
        <ele>98</ele>
        <time>2021-08-05T12:35:35Z</time>
      </trkpt>
      <trkpt lat="43.6255" lon="3.56935">
        <ele>99</ele>
        <time>2021-08-05T12:35:39Z</time>
      </trkpt>
      <trkpt lat="43.62481" lon="3.56843">
        <ele>105</ele>
        <time>2021-08-05T12:36:02Z</time>
      </trkpt>
      <trkpt lat="43.62472" lon="3.56842">
        <ele>105</ele>
        <time>2021-08-05T12:36:04Z</time>
      </trkpt>
      <trkpt lat="43.62448" lon="3.5687">
        <ele>105</ele>
        <time>2021-08-05T12:36:11Z</time>
      </trkpt>
      <trkpt lat="43.62441" lon="3.56871">
        <ele>105</ele>
        <time>2021-08-05T12:36:13Z</time>
      </trkpt>
      <trkpt lat="43.62433" lon="3.56866">
        <ele>105</ele>
        <time>2021-08-05T12:36:15Z</time>
      </trkpt>
      <trkpt lat="43.62408" lon="3.56828">
        <ele>107</ele>
        <time>2021-08-05T12:36:24Z</time>
      </trkpt>
      <trkpt lat="43.62375" lon="3.56781">
        <ele>104</ele>
        <time>2021-08-05T12:36:35Z</time>
      </trkpt>
      <trkpt lat="43.62361" lon="3.56784">
        <ele>104</ele>
        <time>2021-08-05T12:36:38Z</time>
      </trkpt>
      <trkpt lat="43.62349" lon="3.56797">
        <ele>103</ele>
        <time>2021-08-05T12:36:42Z</time>
      </trkpt>
      <trkpt lat="43.6232" lon="3.56833">
        <ele>103</ele>
        <time>2021-08-05T12:36:51Z</time>
      </trkpt>
      <trkpt lat="43.62309" lon="3.56833">
        <ele>104</ele>
        <time>2021-08-05T12:36:53Z</time>
      </trkpt>
      <trkpt lat="43.6222" lon="3.56697">
        <ele>99</ele>
        <time>2021-08-05T12:37:24Z</time>
      </trkpt>
      <trkpt lat="43.62202" lon="3.56677">
        <ele>99</ele>
        <time>2021-08-05T12:37:30Z</time>
      </trkpt>
      <trkpt lat="43.62175" lon="3.56663">
        <ele>100</ele>
        <time>2021-08-05T12:37:36Z</time>
      </trkpt>
      <trkpt lat="43.62148" lon="3.56638">
        <ele>99</ele>
        <time>2021-08-05T12:37:44Z</time>
      </trkpt>
      <trkpt lat="43.62077" lon="3.56624">
        <ele>101</ele>
        <time>2021-08-05T12:38:01Z</time>
      </trkpt>
      <trkpt lat="43.62033" lon="3.56594">
        <ele>102</ele>
        <time>2021-08-05T12:38:12Z</time>
      </trkpt>
      <trkpt lat="43.62013" lon="3.56574">
        <ele>102</ele>
        <time>2021-08-05T12:38:18Z</time>
      </trkpt>
      <trkpt lat="43.62025" lon="3.5646">
        <ele>100</ele>
        <time>2021-08-05T12:38:37Z</time>
      </trkpt>
      <trkpt lat="43.62046" lon="3.56345">
        <ele>101</ele>
        <time>2021-08-05T12:38:57Z</time>
      </trkpt>
      <trkpt lat="43.62044" lon="3.56298">
        <ele>102</ele>
        <time>2021-08-05T12:39:05Z</time>
      </trkpt>
      <trkpt lat="43.62051" lon="3.56215">
        <ele>103</ele>
        <time>2021-08-05T12:39:20Z</time>
      </trkpt>
      <trkpt lat="43.62026" lon="3.56105">
        <ele>106</ele>
        <time>2021-08-05T12:39:39Z</time>
      </trkpt>
      <trkpt lat="43.62024" lon="3.56051">
        <ele>106</ele>
        <time>2021-08-05T12:39:48Z</time>
      </trkpt>
      <trkpt lat="43.62025" lon="3.55953">
        <ele>106</ele>
        <time>2021-08-05T12:40:05Z</time>
      </trkpt>
      <trkpt lat="43.61997" lon="3.55753">
        <ele>107</ele>
        <time>2021-08-05T12:40:39Z</time>
      </trkpt>
      <trkpt lat="43.61988" lon="3.55764">
        <ele>108</ele>
        <time>2021-08-05T12:40:42Z</time>
      </trkpt>
      <trkpt lat="43.61985" lon="3.55781">
        <ele>109</ele>
        <time>2021-08-05T12:40:45Z</time>
      </trkpt>
      <trkpt lat="43.61982" lon="3.55816">
        <ele>109</ele>
        <time>2021-08-05T12:40:51Z</time>
      </trkpt>
      <trkpt lat="43.6197" lon="3.55847">
        <ele>112</ele>
        <time>2021-08-05T12:40:57Z</time>
      </trkpt>
      <trkpt lat="43.6195" lon="3.55858">
        <ele>115</ele>
        <time>2021-08-05T12:41:02Z</time>
      </trkpt>
      <trkpt lat="43.61929" lon="3.55883">
        <ele>117</ele>
        <time>2021-08-05T12:41:08Z</time>
      </trkpt>
      <trkpt lat="43.61901" lon="3.55902">
        <ele>120</ele>
        <time>2021-08-05T12:41:16Z</time>
      </trkpt>
      <trkpt lat="43.61881" lon="3.55922">
        <ele>122</ele>
        <time>2021-08-05T12:41:21Z</time>
      </trkpt>
      <trkpt lat="43.61854" lon="3.55963">
        <ele>122</ele>
        <time>2021-08-05T12:41:31Z</time>
      </trkpt>
      <trkpt lat="43.61845" lon="3.55969">
        <ele>123</ele>
        <time>2021-08-05T12:41:33Z</time>
      </trkpt>
      <trkpt lat="43.61831" lon="3.55971">
        <ele>124</ele>
        <time>2021-08-05T12:41:36Z</time>
      </trkpt>
      <trkpt lat="43.61805" lon="3.5597">
        <ele>124</ele>
        <time>2021-08-05T12:41:42Z</time>
      </trkpt>
      <trkpt lat="43.6179" lon="3.55967">
        <ele>125</ele>
        <time>2021-08-05T12:41:46Z</time>
      </trkpt>
      <trkpt lat="43.61766" lon="3.5595">
        <ele>127</ele>
        <time>2021-08-05T12:41:52Z</time>
      </trkpt>
      <trkpt lat="43.61731" lon="3.55923">
        <ele>129</ele>
        <time>2021-08-05T12:42:02Z</time>
      </trkpt>
      <trkpt lat="43.61723" lon="3.55914">
        <ele>130</ele>
        <time>2021-08-05T12:42:04Z</time>
      </trkpt>
      <trkpt lat="43.61689" lon="3.55857">
        <ele>131</ele>
        <time>2021-08-05T12:42:17Z</time>
      </trkpt>
      <trkpt lat="43.6168" lon="3.55846">
        <ele>131</ele>
        <time>2021-08-05T12:42:19Z</time>
      </trkpt>
      <trkpt lat="43.61672" lon="3.55845">
        <ele>130</ele>
        <time>2021-08-05T12:42:21Z</time>
      </trkpt>
      <trkpt lat="43.61662" lon="3.55851">
        <ele>130</ele>
        <time>2021-08-05T12:42:24Z</time>
      </trkpt>
      <trkpt lat="43.61633" lon="3.55885">
        <ele>130</ele>
        <time>2021-08-05T12:42:33Z</time>
      </trkpt>
      <trkpt lat="43.61611" lon="3.55898">
        <ele>130</ele>
        <time>2021-08-05T12:42:38Z</time>
      </trkpt>
      <trkpt lat="43.61558" lon="3.55982">
        <ele>135</ele>
        <time>2021-08-05T12:42:57Z</time>
      </trkpt>
      <trkpt lat="43.6153" lon="3.56019">
        <ele>138</ele>
        <time>2021-08-05T12:43:06Z</time>
      </trkpt>
      <trkpt lat="43.61522" lon="3.56034">
        <ele>139</ele>
        <time>2021-08-05T12:43:09Z</time>
      </trkpt>
      <trkpt lat="43.61519" lon="3.56046">
        <ele>139</ele>
        <time>2021-08-05T12:43:11Z</time>
      </trkpt>
      <trkpt lat="43.61519" lon="3.56061">
        <ele>139</ele>
        <time>2021-08-05T12:43:14Z</time>
      </trkpt>
      <trkpt lat="43.61515" lon="3.5607">
        <ele>140</ele>
        <time>2021-08-05T12:43:16Z</time>
      </trkpt>
      <trkpt lat="43.61481" lon="3.56105">
        <ele>143</ele>
        <time>2021-08-05T12:43:26Z</time>
      </trkpt>
      <trkpt lat="43.61445" lon="3.56155">
        <ele>145</ele>
        <time>2021-08-05T12:43:38Z</time>
      </trkpt>
      <trkpt lat="43.61417" lon="3.56185">
        <ele>147</ele>
        <time>2021-08-05T12:43:46Z</time>
      </trkpt>
      <trkpt lat="43.6141" lon="3.56195">
        <ele>148</ele>
        <time>2021-08-05T12:43:48Z</time>
      </trkpt>
      <trkpt lat="43.614" lon="3.56232">
        <ele>147</ele>
        <time>2021-08-05T12:43:55Z</time>
      </trkpt>
      <trkpt lat="43.61364" lon="3.56304">
        <ele>150</ele>
        <time>2021-08-05T12:44:10Z</time>
      </trkpt>
      <trkpt lat="43.6136" lon="3.56318">
        <ele>149</ele>
        <time>2021-08-05T12:44:12Z</time>
      </trkpt>
      <trkpt lat="43.6136" lon="3.56331">
        <ele>148</ele>
        <time>2021-08-05T12:44:14Z</time>
      </trkpt>
      <trkpt lat="43.61364" lon="3.56343">
        <ele>148</ele>
        <time>2021-08-05T12:44:17Z</time>
      </trkpt>
      <trkpt lat="43.61369" lon="3.56351">
        <ele>148</ele>
        <time>2021-08-05T12:44:18Z</time>
      </trkpt>
      <trkpt lat="43.61371" lon="3.56361">
        <ele>148</ele>
        <time>2021-08-05T12:44:20Z</time>
      </trkpt>
      <trkpt lat="43.61371" lon="3.56378">
        <ele>148</ele>
        <time>2021-08-05T12:44:23Z</time>
      </trkpt>
      <trkpt lat="43.61364" lon="3.56425">
        <ele>150</ele>
        <time>2021-08-05T12:44:31Z</time>
      </trkpt>
      <trkpt lat="43.61337" lon="3.5641">
        <ele>153</ele>
        <time>2021-08-05T12:44:38Z</time>
      </trkpt>
      <trkpt lat="43.61304" lon="3.56447">
        <ele>159</ele>
        <time>2021-08-05T12:44:48Z</time>
      </trkpt>
      <trkpt lat="43.61294" lon="3.56453">
        <ele>160</ele>
        <time>2021-08-05T12:44:50Z</time>
      </trkpt>
      <trkpt lat="43.61253" lon="3.56422">
        <ele>172</ele>
        <time>2021-08-05T12:45:01Z</time>
      </trkpt>
      <trkpt lat="43.61227" lon="3.56396">
        <ele>179</ele>
        <time>2021-08-05T12:45:09Z</time>
      </trkpt>
      <trkpt lat="43.61211" lon="3.56364">
        <ele>184</ele>
        <time>2021-08-05T12:45:15Z</time>
      </trkpt>
      <trkpt lat="43.61193" lon="3.56345">
        <ele>188</ele>
        <time>2021-08-05T12:45:21Z</time>
      </trkpt>
      <trkpt lat="43.61167" lon="3.56345">
        <ele>195</ele>
        <time>2021-08-05T12:45:27Z</time>
      </trkpt>
      <trkpt lat="43.61144" lon="3.56333">
        <ele>199</ele>
        <time>2021-08-05T12:45:33Z</time>
      </trkpt>
      <trkpt lat="43.61111" lon="3.56338">
        <ele>204</ele>
        <time>2021-08-05T12:45:40Z</time>
      </trkpt>
      <trkpt lat="43.61104" lon="3.56346">
        <ele>206</ele>
        <time>2021-08-05T12:45:42Z</time>
      </trkpt>
      <trkpt lat="43.6107" lon="3.56363">
        <ele>210</ele>
        <time>2021-08-05T12:45:51Z</time>
      </trkpt>
      <trkpt lat="43.61063" lon="3.56372">
        <ele>211</ele>
        <time>2021-08-05T12:45:53Z</time>
      </trkpt>
      <trkpt lat="43.61054" lon="3.56388">
        <ele>211</ele>
        <time>2021-08-05T12:45:57Z</time>
      </trkpt>
      <trkpt lat="43.61048" lon="3.56391">
        <ele>212</ele>
        <time>2021-08-05T12:45:58Z</time>
      </trkpt>
      <trkpt lat="43.61042" lon="3.56392">
        <ele>212</ele>
        <time>2021-08-05T12:45:59Z</time>
      </trkpt>
      <trkpt lat="43.61036" lon="3.56384">
        <ele>212</ele>
        <time>2021-08-05T12:46:01Z</time>
      </trkpt>
      <trkpt lat="43.6103" lon="3.56351">
        <ele>212</ele>
        <time>2021-08-05T12:46:07Z</time>
      </trkpt>
      <trkpt lat="43.61028" lon="3.56349">
        <ele>212</ele>
        <time>2021-08-05T12:46:08Z</time>
      </trkpt>
      <trkpt lat="43.61026" lon="3.56342">
        <ele>212</ele>
        <time>2021-08-05T12:46:09Z</time>
      </trkpt>
      <trkpt lat="43.6102" lon="3.56305">
        <ele>213</ele>
        <time>2021-08-05T12:46:15Z</time>
      </trkpt>
      <trkpt lat="43.61018" lon="3.56279">
        <ele>214</ele>
        <time>2021-08-05T12:46:20Z</time>
      </trkpt>
      <trkpt lat="43.61018" lon="3.56256">
        <ele>214</ele>
        <time>2021-08-05T12:46:24Z</time>
      </trkpt>
      <trkpt lat="43.61022" lon="3.56227">
        <ele>214</ele>
        <time>2021-08-05T12:46:29Z</time>
      </trkpt>
      <trkpt lat="43.61032" lon="3.56199">
        <ele>214</ele>
        <time>2021-08-05T12:46:34Z</time>
      </trkpt>
      <trkpt lat="43.61113" lon="3.5611">
        <ele>211</ele>
        <time>2021-08-05T12:46:58Z</time>
      </trkpt>
      <trkpt lat="43.61128" lon="3.56086">
        <ele>211</ele>
        <time>2021-08-05T12:47:04Z</time>
      </trkpt>
      <trkpt lat="43.61148" lon="3.56033">
        <ele>208</ele>
        <time>2021-08-05T12:47:14Z</time>
      </trkpt>
      <trkpt lat="43.6116" lon="3.56017">
        <ele>207</ele>
        <time>2021-08-05T12:47:18Z</time>
      </trkpt>
      <trkpt lat="43.61167" lon="3.56003">
        <ele>207</ele>
        <time>2021-08-05T12:47:20Z</time>
      </trkpt>
      <trkpt lat="43.61183" lon="3.55944">
        <ele>204</ele>
        <time>2021-08-05T12:47:31Z</time>
      </trkpt>
      <trkpt lat="43.61213" lon="3.55893">
        <ele>201</ele>
        <time>2021-08-05T12:47:42Z</time>
      </trkpt>
      <trkpt lat="43.61224" lon="3.55867">
        <ele>200</ele>
        <time>2021-08-05T12:47:47Z</time>
      </trkpt>
      <trkpt lat="43.61237" lon="3.55847">
        <ele>200</ele>
        <time>2021-08-05T12:47:52Z</time>
      </trkpt>
      <trkpt lat="43.61262" lon="3.55813">
        <ele>197</ele>
        <time>2021-08-05T12:48:00Z</time>
      </trkpt>
      <trkpt lat="43.61274" lon="3.558">
        <ele>194</ele>
        <time>2021-08-05T12:48:04Z</time>
      </trkpt>
      <trkpt lat="43.61284" lon="3.55792">
        <ele>192</ele>
        <time>2021-08-05T12:48:06Z</time>
      </trkpt>
      <trkpt lat="43.61287" lon="3.55783">
        <ele>191</ele>
        <time>2021-08-05T12:48:08Z</time>
      </trkpt>
      <trkpt lat="43.61285" lon="3.55774">
        <ele>191</ele>
        <time>2021-08-05T12:48:10Z</time>
      </trkpt>
      <trkpt lat="43.61273" lon="3.55759">
        <ele>192</ele>
        <time>2021-08-05T12:48:13Z</time>
      </trkpt>
      <trkpt lat="43.61289" lon="3.55744">
        <ele>189</ele>
        <time>2021-08-05T12:48:18Z</time>
      </trkpt>
      <trkpt lat="43.61309" lon="3.55748">
        <ele>188</ele>
        <time>2021-08-05T12:48:23Z</time>
      </trkpt>
      <trkpt lat="43.61329" lon="3.55731">
        <ele>185</ele>
        <time>2021-08-05T12:48:28Z</time>
      </trkpt>
      <trkpt lat="43.61391" lon="3.55658">
        <ele>168</ele>
        <time>2021-08-05T12:48:47Z</time>
      </trkpt>
      <trkpt lat="43.61395" lon="3.55643">
        <ele>166</ele>
        <time>2021-08-05T12:48:50Z</time>
      </trkpt>
      <trkpt lat="43.61409" lon="3.55621">
        <ele>162</ele>
        <time>2021-08-05T12:48:55Z</time>
      </trkpt>
      <trkpt lat="43.61426" lon="3.556">
        <ele>158</ele>
        <time>2021-08-05T12:49:00Z</time>
      </trkpt>
      <trkpt lat="43.61439" lon="3.55577">
        <ele>154</ele>
        <time>2021-08-05T12:49:05Z</time>
      </trkpt>
      <trkpt lat="43.61459" lon="3.55553">
        <ele>149</ele>
        <time>2021-08-05T12:49:11Z</time>
      </trkpt>
      <trkpt lat="43.61439" lon="3.55521">
        <ele>147</ele>
        <time>2021-08-05T12:49:18Z</time>
      </trkpt>
      <trkpt lat="43.61433" lon="3.55509">
        <ele>146</ele>
        <time>2021-08-05T12:49:21Z</time>
      </trkpt>
      <trkpt lat="43.61429" lon="3.55488">
        <ele>143</ele>
        <time>2021-08-05T12:49:24Z</time>
      </trkpt>
      <trkpt lat="43.61421" lon="3.55457">
        <ele>138</ele>
        <time>2021-08-05T12:49:30Z</time>
      </trkpt>
      <trkpt lat="43.61421" lon="3.55449">
        <ele>137</ele>
        <time>2021-08-05T12:49:31Z</time>
      </trkpt>
      <trkpt lat="43.61427" lon="3.55418">
        <ele>131</ele>
        <time>2021-08-05T12:49:37Z</time>
      </trkpt>
      <trkpt lat="43.61425" lon="3.55403">
        <ele>129</ele>
        <time>2021-08-05T12:49:39Z</time>
      </trkpt>
      <trkpt lat="43.61406" lon="3.55365">
        <ele>125</ele>
        <time>2021-08-05T12:49:47Z</time>
      </trkpt>
      <trkpt lat="43.61399" lon="3.55344">
        <ele>122</ele>
        <time>2021-08-05T12:49:51Z</time>
      </trkpt>
      <trkpt lat="43.61399" lon="3.55339">
        <ele>121</ele>
        <time>2021-08-05T12:49:52Z</time>
      </trkpt>
      <trkpt lat="43.61408" lon="3.55322">
        <ele>119</ele>
        <time>2021-08-05T12:49:55Z</time>
      </trkpt>
      <trkpt lat="43.61409" lon="3.55317">
        <ele>118</ele>
        <time>2021-08-05T12:49:56Z</time>
      </trkpt>
      <trkpt lat="43.61407" lon="3.55312">
        <ele>118</ele>
        <time>2021-08-05T12:49:57Z</time>
      </trkpt>
      <trkpt lat="43.61407" lon="3.55301">
        <ele>116</ele>
        <time>2021-08-05T12:49:59Z</time>
      </trkpt>
      <trkpt lat="43.61411" lon="3.55276">
        <ele>114</ele>
        <time>2021-08-05T12:50:04Z</time>
      </trkpt>
      <trkpt lat="43.61409" lon="3.55263">
        <ele>112</ele>
        <time>2021-08-05T12:50:06Z</time>
      </trkpt>
      <trkpt lat="43.61414" lon="3.55245">
        <ele>111</ele>
        <time>2021-08-05T12:50:09Z</time>
      </trkpt>
      <trkpt lat="43.6142" lon="3.55205">
        <ele>107</ele>
        <time>2021-08-05T12:50:16Z</time>
      </trkpt>
      <trkpt lat="43.61425" lon="3.5514">
        <ele>103</ele>
        <time>2021-08-05T12:50:27Z</time>
      </trkpt>
      <trkpt lat="43.61447" lon="3.54956">
        <ele>94</ele>
        <time>2021-08-05T12:50:59Z</time>
      </trkpt>
      <trkpt lat="43.61448" lon="3.54915">
        <ele>92</ele>
        <time>2021-08-05T12:51:05Z</time>
      </trkpt>
      <trkpt lat="43.61435" lon="3.54822">
        <ele>91</ele>
        <time>2021-08-05T12:51:21Z</time>
      </trkpt>
      <trkpt lat="43.61442" lon="3.54817">
        <ele>91</ele>
        <time>2021-08-05T12:51:23Z</time>
      </trkpt>
      <trkpt lat="43.61452" lon="3.548">
        <ele>91</ele>
        <time>2021-08-05T12:51:27Z</time>
      </trkpt>
      <trkpt lat="43.61465" lon="3.54805">
        <ele>90</ele>
        <time>2021-08-05T12:51:30Z</time>
      </trkpt>
      <trkpt lat="43.61494" lon="3.54822">
        <ele>90</ele>
        <time>2021-08-05T12:51:38Z</time>
      </trkpt>
      <trkpt lat="43.61516" lon="3.54841">
        <ele>90</ele>
        <time>2021-08-05T12:51:44Z</time>
      </trkpt>
      <trkpt lat="43.61524" lon="3.54842">
        <ele>90</ele>
        <time>2021-08-05T12:51:45Z</time>
      </trkpt>
      <trkpt lat="43.61583" lon="3.54828">
        <ele>90</ele>
        <time>2021-08-05T12:51:59Z</time>
      </trkpt>
      <trkpt lat="43.61601" lon="3.54825">
        <ele>91</ele>
        <time>2021-08-05T12:52:04Z</time>
      </trkpt>
      <trkpt lat="43.61618" lon="3.5483">
        <ele>91</ele>
        <time>2021-08-05T12:52:08Z</time>
      </trkpt>
      <trkpt lat="43.61643" lon="3.54842">
        <ele>92</ele>
        <time>2021-08-05T12:52:14Z</time>
      </trkpt>
      <trkpt lat="43.61652" lon="3.54816">
        <ele>93</ele>
        <time>2021-08-05T12:52:19Z</time>
      </trkpt>
      <trkpt lat="43.61671" lon="3.5477">
        <ele>94</ele>
        <time>2021-08-05T12:52:28Z</time>
      </trkpt>
      <trkpt lat="43.61677" lon="3.54763">
        <ele>94</ele>
        <time>2021-08-05T12:52:30Z</time>
      </trkpt>
      <trkpt lat="43.61682" lon="3.54746">
        <ele>94</ele>
        <time>2021-08-05T12:52:33Z</time>
      </trkpt>
      <trkpt lat="43.6168" lon="3.54737">
        <ele>95</ele>
        <time>2021-08-05T12:52:34Z</time>
      </trkpt>
      <trkpt lat="43.61681" lon="3.54723">
        <ele>95</ele>
        <time>2021-08-05T12:52:37Z</time>
      </trkpt>
      <trkpt lat="43.61687" lon="3.54711">
        <ele>95</ele>
        <time>2021-08-05T12:52:39Z</time>
      </trkpt>
      <trkpt lat="43.6168" lon="3.54689">
        <ele>95</ele>
        <time>2021-08-05T12:52:43Z</time>
      </trkpt>
      <trkpt lat="43.61677" lon="3.54654">
        <ele>95</ele>
        <time>2021-08-05T12:52:49Z</time>
      </trkpt>
      <trkpt lat="43.61673" lon="3.54637">
        <ele>95</ele>
        <time>2021-08-05T12:52:52Z</time>
      </trkpt>
      <trkpt lat="43.61688" lon="3.54629">
        <ele>94</ele>
        <time>2021-08-05T12:52:56Z</time>
      </trkpt>
      <trkpt lat="43.61669" lon="3.54567">
        <ele>93</ele>
        <time>2021-08-05T12:53:07Z</time>
      </trkpt>
      <trkpt lat="43.6168" lon="3.54557">
        <ele>93</ele>
        <time>2021-08-05T12:53:10Z</time>
      </trkpt>
      <trkpt lat="43.61669" lon="3.54567">
        <ele>93</ele>
        <time>2021-08-05T12:53:13Z</time>
      </trkpt>
      <trkpt lat="43.6162" lon="3.54418">
        <ele>91</ele>
        <time>2021-08-05T12:53:41Z</time>
      </trkpt>
      <trkpt lat="43.61621" lon="3.54407">
        <ele>90</ele>
        <time>2021-08-05T12:53:43Z</time>
      </trkpt>
      <trkpt lat="43.61615" lon="3.54369">
        <ele>89</ele>
        <time>2021-08-05T12:53:50Z</time>
      </trkpt>
      <trkpt lat="43.61567" lon="3.54289">
        <ele>88</ele>
        <time>2021-08-05T12:54:07Z</time>
      </trkpt>
      <trkpt lat="43.61562" lon="3.54276">
        <ele>88</ele>
        <time>2021-08-05T12:54:10Z</time>
      </trkpt>
      <trkpt lat="43.61558" lon="3.54229">
        <ele>86</ele>
        <time>2021-08-05T12:54:18Z</time>
      </trkpt>
      <trkpt lat="43.61555" lon="3.54219">
        <ele>86</ele>
        <time>2021-08-05T12:54:19Z</time>
      </trkpt>
      <trkpt lat="43.61537" lon="3.54194">
        <ele>84</ele>
        <time>2021-08-05T12:54:25Z</time>
      </trkpt>
      <trkpt lat="43.61518" lon="3.5416">
        <ele>83</ele>
        <time>2021-08-05T12:54:33Z</time>
      </trkpt>
      <trkpt lat="43.61509" lon="3.5414">
        <ele>81</ele>
        <time>2021-08-05T12:54:37Z</time>
      </trkpt>
      <trkpt lat="43.61501" lon="3.54117">
        <ele>79</ele>
        <time>2021-08-05T12:54:41Z</time>
      </trkpt>
      <trkpt lat="43.61495" lon="3.54085">
        <ele>77</ele>
        <time>2021-08-05T12:54:47Z</time>
      </trkpt>
      <trkpt lat="43.61476" lon="3.54095">
        <ele>77</ele>
        <time>2021-08-05T12:54:51Z</time>
      </trkpt>
      <trkpt lat="43.61472" lon="3.54096">
        <ele>77</ele>
        <time>2021-08-05T12:54:52Z</time>
      </trkpt>
      <trkpt lat="43.61461" lon="3.54108">
        <ele>77</ele>
        <time>2021-08-05T12:54:56Z</time>
      </trkpt>
      <trkpt lat="43.61354" lon="3.54197">
        <ele>78</ele>
        <time>2021-08-05T12:55:25Z</time>
      </trkpt>
      <trkpt lat="43.61312" lon="3.54227">
        <ele>79</ele>
        <time>2021-08-05T12:55:36Z</time>
      </trkpt>
      <trkpt lat="43.61288" lon="3.54254">
        <ele>79</ele>
        <time>2021-08-05T12:55:43Z</time>
      </trkpt>
      <trkpt lat="43.61268" lon="3.54269">
        <ele>79</ele>
        <time>2021-08-05T12:55:48Z</time>
      </trkpt>
      <trkpt lat="43.61237" lon="3.5428">
        <ele>78</ele>
        <time>2021-08-05T12:55:56Z</time>
      </trkpt>
      <trkpt lat="43.61211" lon="3.54305">
        <ele>79</ele>
        <time>2021-08-05T12:56:03Z</time>
      </trkpt>
      <trkpt lat="43.61165" lon="3.5434">
        <ele>78</ele>
        <time>2021-08-05T12:56:15Z</time>
      </trkpt>
      <trkpt lat="43.61134" lon="3.54309">
        <ele>77</ele>
        <time>2021-08-05T12:56:24Z</time>
      </trkpt>
      <trkpt lat="43.61095" lon="3.54235">
        <ele>74</ele>
        <time>2021-08-05T12:56:40Z</time>
      </trkpt>
      <trkpt lat="43.61086" lon="3.54222">
        <ele>74</ele>
        <time>2021-08-05T12:56:43Z</time>
      </trkpt>
      <trkpt lat="43.6108" lon="3.54221">
        <ele>74</ele>
        <time>2021-08-05T12:56:44Z</time>
      </trkpt>
      <trkpt lat="43.61074" lon="3.54225">
        <ele>74</ele>
        <time>2021-08-05T12:56:46Z</time>
      </trkpt>
      <trkpt lat="43.61062" lon="3.54236">
        <ele>74</ele>
        <time>2021-08-05T12:56:49Z</time>
      </trkpt>
      <trkpt lat="43.61057" lon="3.54239">
        <ele>74</ele>
        <time>2021-08-05T12:56:50Z</time>
      </trkpt>
      <trkpt lat="43.61049" lon="3.5424">
        <ele>74</ele>
        <time>2021-08-05T12:56:52Z</time>
      </trkpt>
      <trkpt lat="43.61043" lon="3.54235">
        <ele>74</ele>
        <time>2021-08-05T12:56:54Z</time>
      </trkpt>
      <trkpt lat="43.61012" lon="3.54201">
        <ele>75</ele>
        <time>2021-08-05T12:57:03Z</time>
      </trkpt>
      <trkpt lat="43.60982" lon="3.54154">
        <ele>75</ele>
        <time>2021-08-05T12:57:14Z</time>
      </trkpt>
      <trkpt lat="43.60932" lon="3.54082">
        <ele>75</ele>
        <time>2021-08-05T12:57:31Z</time>
      </trkpt>
      <trkpt lat="43.60881" lon="3.5402">
        <ele>75</ele>
        <time>2021-08-05T12:57:47Z</time>
      </trkpt>
      <trkpt lat="43.60811" lon="3.53916">
        <ele>74</ele>
        <time>2021-08-05T12:58:11Z</time>
      </trkpt>
      <trkpt lat="43.60781" lon="3.53878">
        <ele>73</ele>
        <time>2021-08-05T12:58:20Z</time>
      </trkpt>
      <trkpt lat="43.60764" lon="3.53862">
        <ele>73</ele>
        <time>2021-08-05T12:58:25Z</time>
      </trkpt>
      <trkpt lat="43.60742" lon="3.53846">
        <ele>73</ele>
        <time>2021-08-05T12:58:31Z</time>
      </trkpt>
      <trkpt lat="43.60657" lon="3.53766">
        <ele>77</ele>
        <time>2021-08-05T12:58:55Z</time>
      </trkpt>
      <trkpt lat="43.60645" lon="3.53757">
        <ele>78</ele>
        <time>2021-08-05T12:58:58Z</time>
      </trkpt>
      <trkpt lat="43.60638" lon="3.53756">
        <ele>78</ele>
        <time>2021-08-05T12:59:00Z</time>
      </trkpt>
      <trkpt lat="43.60615" lon="3.53784">
        <ele>79</ele>
        <time>2021-08-05T12:59:07Z</time>
      </trkpt>
      <trkpt lat="43.60592" lon="3.53818">
        <ele>78</ele>
        <time>2021-08-05T12:59:15Z</time>
      </trkpt>
      <trkpt lat="43.60587" lon="3.5382">
        <ele>78</ele>
        <time>2021-08-05T12:59:16Z</time>
      </trkpt>
      <trkpt lat="43.60581" lon="3.53819">
        <ele>79</ele>
        <time>2021-08-05T12:59:17Z</time>
      </trkpt>
      <trkpt lat="43.60575" lon="3.53811">
        <ele>79</ele>
        <time>2021-08-05T12:59:19Z</time>
      </trkpt>
      <trkpt lat="43.60491" lon="3.53625">
        <ele>85</ele>
        <time>2021-08-05T12:59:56Z</time>
      </trkpt>
    </trkseg>
  </trk>
</gpx>